Time;durP1;ratioP1;P1;durP2;ratioP2;P2;SDS_P1;SDS_P2;PMS_P1;PMS_P2;Temp;Humidity;BMP_temperature;BMP_pressure;BME280_temperature;BME280_humidity;BME280_pressure;Samples;Min_cycle;Max_cycle;Signal;HPM_P1;HPM_P2
2023/06/06 00:01:05;;;;;;;8.85;7.40;;;;;;;13.92;100.00;101895.59;4989145;28;20026;-62
2023/06/06 00:03:31;;;;;;;10.93;7.90;;;;;;;13.86;100.00;101895.41;4988848;28;20030;-62
2023/06/06 00:05:59;;;;;;;10.98;8.48;;;;;;;13.85;100.00;101896.22;4989023;28;20026;-62
2023/06/06 00:08:28;;;;;;;9.63;7.20;;;;;;;13.82;100.00;101896.13;4988229;28;20040;-62
2023/06/06 00:10:56;;;;;;;8.60;7.15;;;;;;;13.75;100.00;101889.81;4988977;28;20026;-61
2023/06/06 00:13:22;;;;;;;8.57;7.53;;;;;;;13.72;100.00;101894.03;4988844;28;20033;-61
2023/06/06 00:15:47;;;;;;;10.80;8.23;;;;;;;13.68;100.00;101895.63;4988621;28;20023;-60
2023/06/06 00:18:13;;;;;;;9.40;7.47;;;;;;;13.63;100.00;101900.69;4998757;28;20416;-61
2023/06/06 00:20:39;;;;;;;10.68;8.40;;;;;;;13.59;100.00;101890.97;5006718;28;20061;-62
2023/06/06 00:23:06;;;;;;;9.20;7.93;;;;;;;13.54;100.00;101895.13;4995410;28;20030;-62
2023/06/06 00:25:31;;;;;;;10.18;7.65;;;;;;;13.47;100.00;101888.78;4988575;28;20038;-62
2023/06/06 00:27:56;;;;;;;11.15;7.85;;;;;;;13.43;100.00;101890.38;4988413;28;20105;-62
2023/06/06 00:30:22;;;;;;;9.95;8.13;;;;;;;13.40;100.00;101887.66;4988801;28;20033;-62
2023/06/06 00:32:47;;;;;;;11.38;8.07;;;;;;;13.39;100.00;101893.69;4988643;28;20072;-62
2023/06/06 00:35:12;;;;;;;10.25;8.00;;;;;;;13.36;100.00;101893.59;4988937;28;20053;-62
2023/06/06 00:37:38;;;;;;;10.50;7.93;;;;;;;13.33;100.00;101893.44;4987884;28;20110;-62
2023/06/06 00:40:04;;;;;;;11.45;8.10;;;;;;;13.30;100.00;101888.13;4988214;28;20026;-61
2023/06/06 00:42:30;;;;;;;10.10;7.78;;;;;;;13.28;100.00;101895.00;4988884;28;20498;-61
2023/06/06 00:44:55;;;;;;;12.00;8.73;;;;;;;13.21;100.00;101894.78;4987505;28;20017;-62
2023/06/06 00:47:20;;;;;;;9.25;8.27;;;;;;;13.13;100.00;101892.72;4988393;28;20502;-62
2023/06/06 00:49:46;;;;;;;9.85;8.00;;;;;;;13.10;100.00;101896.06;4988143;28;20030;-60
2023/06/06 00:52:12;;;;;;;8.82;7.72;;;;;;;13.06;100.00;101894.22;4988228;28;20026;-61
2023/06/06 00:54:38;;;;;;;12.15;8.30;;;;;;;13.06;100.00;101894.22;4988263;28;20014;-61
2023/06/06 00:57:07;;;;;;;10.80;8.73;;;;;;;13.02;100.00;101892.31;4988700;28;20097;-62
2023/06/06 00:59:32;;;;;;;10.02;8.32;;;;;;;12.97;100.00;101890.41;4988744;28;20026;-62
2023/06/06 01:01:58;;;;;;;9.38;7.55;;;;;;;12.89;100.00;101884.03;4987270;28;20022;-60
2023/06/06 01:04:25;;;;;;;10.18;8.15;;;;;;;12.87;100.00;101892.59;4988600;28;20019;-61
2023/06/06 01:06:51;;;;;;;13.00;8.98;;;;;;;12.79;100.00;101889.69;4982180;28;20046;-62
2023/06/06 01:09:19;;;;;;;9.68;8.00;;;;;;;12.76;100.00;101892.16;4981888;28;20057;-61
2023/06/06 01:11:56;;;;;;;11.98;8.20;;;;;;;12.73;100.00;101891.22;4968973;28;20027;-61
2023/06/06 01:14:30;;;;;;;9.60;8.27;;;;;;;12.70;100.00;101891.09;4983390;28;20395;-61
2023/06/06 01:17:01;;;;;;;10.63;8.65;;;;;;;12.69;100.00;101894.53;4988671;28;20538;-61
2023/06/06 01:19:32;;;;;;;10.27;8.25;;;;;;;12.66;100.00;101891.81;4988634;28;20450;-60
2023/06/06 01:21:58;;;;;;;11.00;9.10;;;;;;;12.66;100.00;101891.81;4988698;28;20053;-61
2023/06/06 01:24:24;;;;;;;10.05;7.72;;;;;;;12.65;100.00;101895.22;4987317;28;20026;-62
2023/06/06 01:26:51;;;;;;;10.68;8.93;;;;;;;12.65;100.00;101890.03;4988748;28;20353;-62
2023/06/06 01:29:16;;;;;;;12.15;8.65;;;;;;;12.61;100.00;101889.00;4988114;28;20086;-60
2023/06/06 01:31:49;;;;;;;13.00;8.57;;;;;;;12.53;100.00;101892.13;4988182;28;20763;-62
2023/06/06 01:34:29;;;;;;;12.50;8.73;;;;;;;12.47;100.00;101893.66;4987760;28;20053;-61
2023/06/06 01:37:08;;;;;;;11.25;8.80;;;;;;;12.45;100.00;101889.19;4987669;28;20023;-62
2023/06/06 01:39:38;;;;;;;11.10;8.32;;;;;;;12.41;100.00;101884.72;4977207;28;20026;-62
2023/06/06 01:42:05;;;;;;;11.30;8.13;;;;;;;12.37;100.00;101888.91;4988219;28;20517;-61
2023/06/06 01:44:31;;;;;;;12.57;8.85;;;;;;;12.35;100.00;101894.03;4988223;28;20264;-62
2023/06/06 01:46:56;;;;;;;9.77;7.72;;;;;;;12.34;100.00;101891.38;4987250;28;20073;-61
2023/06/06 01:49:25;;;;;;;11.25;8.43;;;;;;;12.34;100.00;101887.06;4988315;28;20443;-62
2023/06/06 01:51:52;;;;;;;9.88;7.95;;;;;;;12.30;100.00;101889.47;4990084;28;20038;-61
2023/06/06 01:54:17;;;;;;;9.63;8.52;;;;;;;12.23;100.00;101889.19;4991382;28;20502;-61
2023/06/06 01:56:42;;;;;;;11.55;8.60;;;;;;;12.17;100.00;101886.34;4991461;28;20038;-60
2023/06/06 01:59:08;;;;;;;10.23;8.60;;;;;;;12.10;100.00;101880.03;4991499;28;20045;-62
2023/06/06 02:01:33;;;;;;;11.30;8.45;;;;;;;12.06;100.00;101884.97;4978172;28;20049;-61
2023/06/06 02:03:58;;;;;;;8.57;7.65;;;;;;;12.05;100.00;101884.09;4991418;28;20027;-60
2023/06/06 02:06:23;;;;;;;10.38;8.13;;;;;;;12.04;100.00;101887.50;4991580;28;20485;-62
2023/06/06 02:08:49;;;;;;;11.93;9.30;;;;;;;12.01;100.00;101887.38;4991189;28;20101;-62
2023/06/06 02:11:14;;;;;;;10.90;8.20;;;;;;;11.96;100.00;101886.31;4991175;28;20583;-62
2023/06/06 02:13:40;;;;;;;10.75;8.38;;;;;;;11.94;100.00;101888.84;4990513;28;20034;-61
2023/06/06 02:16:06;;;;;;;10.57;8.60;;;;;;;11.91;100.00;101895.59;4990834;28;20080;-62
2023/06/06 02:18:31;;;;;;;11.25;8.77;;;;;;;11.90;100.00;101884.31;4991453;28;20018;-60
2023/06/06 02:20:56;;;;;;;13.05;9.90;;;;;;;11.87;100.00;101894.59;4991348;28;20277;-62
2023/06/06 02:23:22;;;;;;;12.38;9.30;;;;;;;11.84;100.00;101899.63;4990204;28;20370;-62
2023/06/06 02:25:48;;;;;;;11.65;7.95;;;;;;;11.79;100.00;101889.03;4990885;28;20037;-62
2023/06/06 02:28:14;;;;;;;11.77;8.68;;;;;;;11.76;100.00;101894.97;4991093;28;20026;-62
2023/06/06 02:30:39;;;;;;;10.02;8.95;;;;;;;11.74;100.00;101891.44;4990422;28;20076;-61
2023/06/06 02:33:06;;;;;;;12.32;8.82;;;;;;;11.73;100.00;101887.06;4990550;28;20046;-60
2023/06/06 02:35:31;;;;;;;12.93;9.23;;;;;;;11.73;100.00;101887.06;4990483;28;20596;-61
2023/06/06 02:37:56;;;;;;;11.70;8.52;;;;;;;11.71;100.00;101883.50;4991307;28;20026;-60
2023/06/06 02:40:22;;;;;;;12.45;8.88;;;;;;;11.67;100.00;101885.91;4990582;28;20464;-62
2023/06/06 02:42:47;;;;;;;9.45;8.40;;;;;;;11.62;100.00;101886.59;4991235;28;20031;-62
2023/06/06 02:45:12;;;;;;;11.45;8.50;;;;;;;11.61;100.00;101896.91;4989977;28;20030;-62
2023/06/06 02:47:38;;;;;;;11.73;8.88;;;;;;;11.59;100.00;101890.75;4990970;28;20128;-62
2023/06/06 02:50:04;;;;;;;9.32;8.43;;;;;;;11.55;100.00;101891.47;4990299;28;20092;-62
2023/06/06 02:52:31;;;;;;;11.05;9.48;;;;;;;11.49;100.00;101887.78;4990600;28;20023;-61
2023/06/06 02:54:57;;;;;;;10.50;8.18;;;;;;;11.46;100.00;101889.34;4990332;28;20027;-63
2023/06/06 02:57:22;;;;;;;11.07;8.75;;;;;;;11.41;100.00;101884.81;4990265;28;20022;-63
2023/06/06 02:59:47;;;;;;;14.52;9.23;;;;;;;11.36;100.00;101890.59;4990866;28;20120;-62
2023/06/06 03:02:15;;;;;;;11.13;9.35;;;;;;;11.35;100.00;101894.03;4989779;28;20030;-63
2023/06/06 03:04:43;;;;;;;11.10;8.77;;;;;;;11.34;100.00;101897.44;4990126;28;20166;-60
2023/06/06 03:07:10;;;;;;;11.20;8.77;;;;;;;11.29;100.00;101899.81;4988714;28;20026;-62
2023/06/06 03:09:36;;;;;;;11.52;8.98;;;;;;;11.31;100.00;101894.72;4990315;28;20030;-62
2023/06/06 03:12:01;;;;;;;13.68;9.57;;;;;;;11.27;100.00;101902.34;4987926;28;20465;-61
2023/06/06 03:14:26;;;;;;;9.30;8.38;;;;;;;11.24;100.00;101901.31;4988230;28;20034;-61
2023/06/06 03:16:52;;;;;;;13.13;9.30;;;;;;;11.23;100.00;101897.84;4987942;28;20037;-62
2023/06/06 03:19:17;;;;;;;9.38;8.20;;;;;;;11.24;100.00;101896.13;4988212;28;20038;-62
2023/06/06 03:21:43;;;;;;;10.88;8.25;;;;;;;11.22;100.00;101890.88;4987432;28;20532;-62
2023/06/06 03:24:08;;;;;;;10.65;8.63;;;;;;;11.21;100.00;101886.50;4987945;28;20037;-61
2023/06/06 03:26:34;;;;;;;11.57;9.35;;;;;;;11.18;100.00;101894.13;4987673;28;20084;-62
2023/06/06 03:29:00;;;;;;;10.27;8.07;;;;;;;11.15;100.00;101891.41;4988107;28;20089;-62
2023/06/06 03:31:29;;;;;;;12.35;9.02;;;;;;;11.13;100.00;101893.94;4989672;28;20026;-61
2023/06/06 03:33:54;;;;;;;9.93;8.23;;;;;;;11.15;100.00;101899.19;4989936;28;20101;-62
2023/06/06 03:36:19;;;;;;;13.32;9.43;;;;;;;11.11;100.00;101898.16;4990008;28;20058;-62
2023/06/06 03:38:45;;;;;;;10.95;8.68;;;;;;;11.09;100.00;101889.41;4989022;28;20014;-61
2023/06/06 03:41:10;;;;;;;10.07;8.40;;;;;;;11.08;100.00;101889.34;4989604;28;20022;-60
2023/06/06 03:43:36;;;;;;;10.60;9.25;;;;;;;11.05;100.00;101893.56;4989550;28;20064;-62
2023/06/06 03:46:01;;;;;;;12.07;8.95;;;;;;;11.02;100.00;101896.03;4989513;28;20053;-62
2023/06/06 03:48:26;;;;;;;9.48;8.20;;;;;;;10.96;100.00;101895.72;4988408;28;20169;-62
2023/06/06 03:50:52;;;;;;;9.95;8.88;;;;;;;10.96;100.00;101895.72;4989670;28;20593;-62
2023/06/06 03:53:17;;;;;;;12.68;9.05;;;;;;;10.98;100.00;101890.59;4988812;28;20030;-62
2023/06/06 03:55:44;;;;;;;9.60;8.27;;;;;;;10.98;100.00;101901.88;4989163;28;20620;-62
2023/06/06 03:58:13;;;;;;;10.60;8.68;;;;;;;10.98;100.00;101898.38;4989064;28;20048;-61
2023/06/06 04:00:39;;;;;;;11.05;8.90;;;;;;;10.97;100.00;101905.31;4988767;28;20026;-61
2023/06/06 04:03:05;;;;;;;9.85;8.85;;;;;;;10.96;100.00;101905.19;4989100;28;20100;-62
2023/06/06 04:05:32;;;;;;;11.85;9.85;;;;;;;10.92;100.00;101901.56;4989251;28;20125;-62
2023/06/06 04:07:58;;;;;;;11.02;9.23;;;;;;;10.90;100.00;101903.22;4989359;28;20057;-62
2023/06/06 04:10:24;;;;;;;14.75;8.82;;;;;;;10.89;100.00;101906.63;4989133;28;20037;-62
2023/06/06 04:12:49;;;;;;;13.73;9.45;;;;;;;10.88;100.00;101897.06;4988479;28;20285;-62
2023/06/06 04:15:14;;;;;;;10.75;8.68;;;;;;;10.88;100.00;101903.13;4988650;28;20470;-62
2023/06/06 04:17:40;;;;;;;13.98;9.20;;;;;;;10.89;100.00;101899.75;4989090;28;20061;-61
2023/06/06 04:20:08;;;;;;;11.35;9.25;;;;;;;10.91;100.00;101899.81;4988676;28;20359;-62
2023/06/06 04:22:33;;;;;;;10.15;8.93;;;;;;;10.92;100.00;101902.47;4988318;28;20038;-62
2023/06/06 04:24:59;;;;;;;11.23;8.98;;;;;;;10.97;100.00;101900.13;4989254;28;20030;-61
2023/06/06 04:27:24;;;;;;;10.65;8.85;;;;;;;11.00;100.00;101905.44;4989031;28;20277;-62
2023/06/06 04:29:51;;;;;;;12.05;8.40;;;;;;;11.01;100.00;101904.59;4988655;28;20057;-63
2023/06/06 04:32:19;;;;;;;11.50;9.00;;;;;;;11.02;100.00;101906.41;4988478;28;20034;-62
2023/06/06 04:34:45;;;;;;;10.55;9.00;;;;;;;11.04;100.00;101898.69;4988192;28;20042;-63
2023/06/06 04:37:13;;;;;;;9.30;8.05;;;;;;;11.05;100.00;101906.53;4988217;28;20385;-62
2023/06/06 04:39:40;;;;;;;11.00;9.05;;;;;;;11.10;100.00;101903.28;4988275;28;20033;-62
2023/06/06 04:42:06;;;;;;;12.63;9.02;;;;;;;11.15;100.00;101901.78;4988578;28;20033;-61
2023/06/06 04:44:32;;;;;;;12.73;8.85;;;;;;;11.20;100.00;101905.47;4988752;28;20401;-61
2023/06/06 04:47:03;;;;;;;11.00;8.82;;;;;;;11.24;100.00;101904.78;4987934;28;20034;-62
2023/06/06 04:49:35;;;;;;;12.30;9.07;;;;;;;11.25;100.00;101903.09;4988523;28;20044;-62
2023/06/06 04:52:02;;;;;;;11.52;9.30;;;;;;;11.26;100.00;101900.56;4987746;28;20036;-62
2023/06/06 04:54:28;;;;;;;11.70;8.95;;;;;;;11.28;100.00;101906.72;4987864;28;20478;-62
2023/06/06 04:56:53;;;;;;;11.88;9.20;;;;;;;11.28;100.00;101904.13;4988059;28;20084;-62
2023/06/06 04:59:22;;;;;;;13.55;9.63;;;;;;;11.32;100.00;101910.34;4988579;28;20406;-62
2023/06/06 05:01:48;;;;;;;10.88;9.65;;;;;;;11.37;100.00;101902.78;4989034;28;20030;-62
2023/06/06 05:04:13;;;;;;;11.63;9.20;;;;;;;11.42;100.00;101911.66;4988197;28;20092;-62
2023/06/06 05:06:40;;;;;;;11.40;8.82;;;;;;;11.47;100.00;101897.19;4987649;28;20022;-62
2023/06/06 05:09:07;;;;;;;11.27;9.23;;;;;;;11.56;100.00;101903.59;4987876;28;20019;-62
2023/06/06 05:11:33;;;;;;;11.55;9.02;;;;;;;11.57;100.00;101905.38;4987718;28;20080;-62
2023/06/06 05:13:58;;;;;;;11.50;9.48;;;;;;;11.61;100.00;101902.09;4988300;28;20390;-63
2023/06/06 05:16:23;;;;;;;12.18;9.25;;;;;;;11.64;100.00;101905.72;4987899;28;20015;-62
2023/06/06 05:18:48;;;;;;;15.77;9.85;;;;;;;11.65;100.00;101909.22;4988052;28;20092;-61
2023/06/06 05:21:14;;;;;;;11.15;9.10;;;;;;;11.69;100.00;101916.34;4987138;28;20390;-62
2023/06/06 05:23:40;;;;;;;10.43;8.80;;;;;;;11.74;100.00;101904.44;4988261;28;20088;-63
2023/06/06 05:26:05;;;;;;;11.55;9.45;;;;;;;11.80;100.00;101908.97;4989947;28;20173;-62
2023/06/06 05:28:30;;;;;;;11.60;9.23;;;;;;;11.85;100.00;101917.00;4991963;28;20030;-62
2023/06/06 05:30:56;;;;;;;9.65;8.65;;;;;;;11.88;100.00;101911.94;4992198;28;20029;-62
2023/06/06 05:33:23;;;;;;;14.27;10.27;;;;;;;11.91;100.00;101912.06;4992330;28;20164;-63
2023/06/06 05:35:48;;;;;;;12.07;9.27;;;;;;;11.97;100.00;101909.75;4992002;28;20141;-63
2023/06/06 05:38:16;;;;;;;14.13;9.75;;;;;;;12.06;100.00;101905.75;4991377;28;20226;-62
2023/06/06 05:40:41;;;;;;;10.23;9.23;;;;;;;12.16;100.00;101913.16;4991839;28;20058;-62
2023/06/06 05:43:07;;;;;;;9.13;8.18;;;;;;;12.23;100.00;101912.59;4991727;28;20110;-63
2023/06/06 05:45:32;;;;;;;11.45;8.77;;;;;;;12.33;100.00;101915.59;4991304;28;20472;-62
2023/06/06 05:47:57;;;;;;;11.63;9.25;;;;;;;12.44;100.00;101919.53;4991244;28;20026;-62
2023/06/06 05:50:22;;;;;;;12.35;9.48;;;;;;;12.57;100.00;101926.13;4991420;28;20103;-62
2023/06/06 05:52:48;;;;;;;11.18;9.35;;;;;;;12.65;100.00;101918.63;4990935;28;20042;-63
2023/06/06 05:55:35;;;;;;;11.18;8.85;;;;;;;12.76;100.00;101920.75;4991103;28;20025;-62
2023/06/06 05:58:02;;;;;;;14.60;10.18;;;;;;;12.85;100.00;101921.13;4991437;28;20080;-62
2023/06/06 06:00:30;;;;;;;12.18;8.80;;;;;;;12.97;100.00;101916.41;4990766;28;20026;-62
2023/06/06 06:02:57;;;;;;;9.50;8.13;;;;;;;13.08;100.00;101921.16;4990863;28;20510;-62
2023/06/06 06:05:27;;;;;;;12.32;8.60;;;;;;;13.20;100.00;101915.56;4990958;28;20621;-62
2023/06/06 06:08:02;;;;;;;12.40;8.48;;;;;;;13.35;100.00;101915.22;4991152;28;20026;-63
2023/06/06 06:10:29;;;;;;;9.75;8.32;;;;;;;13.54;100.00;101908.16;4980738;28;20440;-63
2023/06/06 06:12:55;;;;;;;13.15;8.45;;;;;;;13.68;100.00;101913.84;4990337;28;20489;-61
2023/06/06 06:15:21;;;;;;;10.25;8.60;;;;;;;13.85;100.00;101914.44;4991420;28;20532;-62
2023/06/06 06:17:47;;;;;;;10.65;8.25;;;;;;;14.01;100.00;101921.09;4983699;28;20030;-62
2023/06/06 06:20:14;;;;;;;10.75;8.75;;;;;;;14.19;100.00;101919.97;4990308;28;20022;-62
2023/06/06 06:22:40;;;;;;;12.18;8.60;;;;;;;14.35;100.00;101920.50;4988825;28;20030;-62
2023/06/06 06:25:08;;;;;;;12.38;7.55;;;;;;;14.49;100.00;101923.56;4989232;28;20558;-63
2023/06/06 06:27:35;;;;;;;10.43;7.47;;;;;;;14.62;100.00;101925.75;4989421;28;20104;-63
2023/06/06 06:30:04;;;;;;;11.23;8.02;;;;;;;14.76;100.00;101928.78;4990160;28;20040;-63
2023/06/06 06:32:29;;;;;;;10.65;8.10;;;;;;;14.82;100.00;101932.47;4988105;28;20045;-62
2023/06/06 06:34:55;;;;;;;8.45;6.93;;;;;;;14.94;100.00;101931.94;4986392;28;20516;-63
2023/06/06 06:37:20;;;;;;;9.43;7.45;;;;;;;15.10;100.00;101934.22;4986558;28;20027;-64
2023/06/06 06:39:48;;;;;;;12.15;8.15;;;;;;;15.24;100.00;101931.13;4988449;28;20540;-63
2023/06/06 06:42:13;;;;;;;8.63;7.50;;;;;;;15.41;100.00;101926.41;4986030;28;20144;-63
2023/06/06 06:44:39;;;;;;;10.23;7.38;;;;;;;15.59;100.00;101928.69;4984640;28;20050;-64
2023/06/06 06:47:04;;;;;;;8.45;6.55;;;;;;;15.73;99.53;101926.44;4984271;28;20034;-63
2023/06/06 06:49:30;;;;;;;8.57;6.82;;;;;;;15.91;96.06;101934.72;4989112;28;20137;-64
2023/06/06 06:51:56;;;;;;;7.95;6.72;;;;;;;16.07;96.22;101921.28;4989073;28;20033;-61
2023/06/06 06:54:23;;;;;;;9.18;6.63;;;;;;;16.24;93.72;101920.84;4989559;28;20407;-64
2023/06/06 06:56:51;;;;;;;7.65;6.82;;;;;;;16.30;92.53;101936.66;4988188;28;20104;-62
2023/06/06 06:59:17;;;;;;;8.18;7.35;;;;;;;16.39;93.70;101927.28;4990047;28;20116;-63
2023/06/06 07:01:49;;;;;;;7.72;6.93;;;;;;;16.47;92.97;101930.97;4989405;28;20033;-64
2023/06/06 07:04:16;;;;;;;12.63;6.68;;;;;;;16.61;92.55;101927.81;4987625;28;20209;-64
2023/06/06 07:06:42;;;;;;;9.85;6.60;;;;;;;16.71;90.15;101932.44;4979676;28;20038;-64
2023/06/06 07:09:08;;;;;;;8.43;6.53;;;;;;;16.78;90.76;101929.09;4989697;28;20485;-64
2023/06/06 07:11:33;;;;;;;11.43;7.90;;;;;;;16.87;90.51;101931.06;4981574;28;20034;-63
2023/06/06 07:13:59;;;;;;;8.95;6.32;;;;;;;16.91;89.67;101932.00;4988874;28;20022;-64
2023/06/06 07:16:25;;;;;;;7.57;6.10;;;;;;;16.96;90.47;101925.16;4989509;28;20062;-64
2023/06/06 07:18:52;;;;;;;7.53;6.68;;;;;;;17.00;88.57;101932.22;4988122;28;20064;-64
2023/06/06 07:21:21;;;;;;;10.23;6.65;;;;;;;17.06;88.50;101931.47;4989432;28;20680;-64
2023/06/06 07:23:49;;;;;;;7.25;6.32;;;;;;;17.17;89.68;101934.34;4989299;28;20061;-64
2023/06/06 07:26:19;;;;;;;8.52;6.63;;;;;;;17.25;88.39;101927.53;4989092;28;20498;-63
2023/06/06 07:28:46;;;;;;;8.73;6.57;;;;;;;17.36;86.40;101927.78;4986029;28;20375;-64
2023/06/06 07:31:12;;;;;;;7.07;6.25;;;;;;;17.50;87.18;101930.66;4990196;28;20410;-62
2023/06/06 07:33:38;;;;;;;7.28;6.18;;;;;;;17.64;85.00;101930.09;4989282;28;20030;-64
2023/06/06 07:36:03;;;;;;;7.50;5.80;;;;;;;17.77;85.72;101926.84;4989655;28;20039;-64
2023/06/06 07:38:29;;;;;;;7.70;5.85;;;;;;;17.89;82.71;101927.94;4990008;28;20033;-64
2023/06/06 07:40:54;;;;;;;11.85;6.55;;;;;;;18.04;84.03;101921.22;4989200;28;20081;-64
2023/06/06 07:43:20;;;;;;;7.55;5.82;;;;;;;18.16;83.51;101924.09;4988253;28;20391;-63
2023/06/06 07:45:46;;;;;;;9.32;6.57;;;;;;;18.19;81.12;101918.88;4989338;28;20101;-63
2023/06/06 07:48:12;;;;;;;8.70;6.40;;;;;;;18.26;82.28;101919.00;4989167;28;20105;-64
2023/06/06 07:50:37;;;;;;;7.50;6.07;;;;;;;18.38;81.45;101923.56;4988906;28;20470;-64
2023/06/06 07:53:03;;;;;;;8.30;5.75;;;;;;;18.54;81.86;101920.34;4989454;28;20036;-63
2023/06/06 07:55:30;;;;;;;6.68;5.97;;;;;;;18.68;79.86;101915.31;4989056;28;20390;-64
2023/06/06 07:57:57;;;;;;;8.15;6.32;;;;;;;18.81;78.67;101918.09;4989627;28;20076;-64
2023/06/06 08:00:23;;;;;;;10.18;6.85;;;;;;;18.92;78.97;101913.91;4989359;28;20038;-64
2023/06/06 08:02:48;;;;;;;7.57;5.85;;;;;;;19.04;77.13;101912.28;4988353;28;20037;-64
2023/06/06 08:05:14;;;;;;;8.02;6.30;;;;;;;19.15;76.43;101904.59;4988882;28;20018;-64
2023/06/06 08:07:39;;;;;;;8.25;6.15;;;;;;;19.31;76.26;101906.56;4988972;28;20030;-64
2023/06/06 08:10:06;;;;;;;9.27;6.05;;;;;;;19.46;74.02;101906.72;4988793;28;20062;-64
2023/06/06 08:12:32;;;;;;;7.82;6.22;;;;;;;19.63;76.12;101905.16;4988815;28;20262;-63
2023/06/06 08:14:57;;;;;;;8.15;6.60;;;;;;;19.71;75.19;101914.88;4988638;28;20082;-64
2023/06/06 08:17:22;;;;;;;9.07;7.05;;;;;;;19.75;73.21;101908.78;4988921;28;20222;-64
2023/06/06 08:19:48;;;;;;;8.65;6.88;;;;;;;19.85;71.24;101910.66;4982708;28;20049;-64
2023/06/06 08:22:13;;;;;;;7.40;6.55;;;;;;;19.98;71.93;101910.78;4981639;28;20386;-64
2023/06/06 08:24:39;;;;;;;8.27;5.60;;;;;;;20.14;72.21;101911.81;4988460;28;20034;-63
2023/06/06 08:27:05;;;;;;;7.03;5.88;;;;;;;20.29;70.94;101911.09;4988574;28;20014;-64
2023/06/06 08:29:30;;;;;;;8.45;5.65;;;;;;;20.47;72.87;101907.69;4988729;28;20506;-64
2023/06/06 08:31:56;;;;;;;8.15;6.53;;;;;;;20.64;70.55;101907.84;4979163;28;20032;-64
2023/06/06 08:34:22;;;;;;;7.57;6.18;;;;;;;20.74;70.76;101907.91;4985023;28;20041;-64
2023/06/06 08:36:48;;;;;;;10.88;6.47;;;;;;;20.92;70.03;101900.97;4988977;28;20120;-64
2023/06/06 08:39:16;;;;;;;8.80;5.95;;;;;;;21.08;67.06;101902.81;4988113;28;20080;-64
2023/06/06 08:41:50;;;;;;;7.07;5.95;;;;;;;21.26;66.98;101905.56;4988056;28;20430;-64
2023/06/06 08:44:21;;;;;;;7.65;6.28;;;;;;;21.34;66.32;101901.19;4988843;28;20193;-65
2023/06/06 08:46:48;;;;;;;7.45;6.63;;;;;;;21.30;65.66;101907.34;4988224;28;20084;-64
2023/06/06 08:49:17;;;;;;;9.82;6.80;;;;;;;21.32;67.79;101909.09;4987856;28;20022;-65
2023/06/06 08:51:44;;;;;;;10.15;7.10;;;;;;;21.45;66.51;101902.09;4987675;28;20029;-64
2023/06/06 08:54:10;;;;;;;8.20;6.32;;;;;;;21.62;67.13;101908.31;4987832;28;20101;-64
2023/06/06 08:56:37;;;;;;;7.60;6.13;;;;;;;21.75;66.54;101899.53;4987572;28;20478;-64
2023/06/06 08:59:02;;;;;;;11.80;7.00;;;;;;;21.77;65.08;101903.06;4986319;28;20054;-64
2023/06/06 09:01:28;;;;;;;8.25;6.22;;;;;;;21.97;65.29;101907.50;4987094;28;20100;-64
2023/06/06 09:03:56;;;;;;;11.52;6.93;;;;;;;22.14;66.01;101907.53;4986259;28;20015;-65
2023/06/06 09:06:21;;;;;;;10.85;6.57;;;;;;;22.10;64.52;101904.88;4987461;28;20072;-65
2023/06/06 09:08:48;;;;;;;9.20;6.28;;;;;;;22.27;62.72;101895.19;4986850;28;20066;-65
2023/06/06 09:11:15;;;;;;;7.63;5.82;;;;;;;22.41;63.48;101899.59;4987937;28;20038;-64
2023/06/06 09:13:42;;;;;;;7.22;5.93;;;;;;;22.40;63.00;101908.38;4987172;28;20038;-65
2023/06/06 09:16:08;;;;;;;10.73;6.70;;;;;;;22.48;62.27;101898.72;4987311;28;20026;-65
2023/06/06 09:18:35;;;;;;;9.80;6.82;;;;;;;22.52;63.39;101908.38;4980133;28;20261;-65
2023/06/06 09:21:00;;;;;;;7.47;6.00;;;;;;;22.64;64.26;101906.63;4983903;28;20121;-64
2023/06/06 09:23:30;;;;;;;7.00;6.28;;;;;;;22.72;63.44;101889.00;4986888;28;20098;-65
2023/06/06 09:25:55;;;;;;;9.55;5.97;;;;;;;22.78;63.03;101899.56;4987142;28;20030;-64
2023/06/06 09:28:24;;;;;;;7.82;5.90;;;;;;;22.99;62.95;101886.31;4985988;28;20433;-65
2023/06/06 09:30:49;;;;;;;8.38;5.72;;;;;;;23.11;60.86;101895.94;4987636;28;20025;-65
2023/06/06 09:33:15;;;;;;;7.97;5.38;;;;;;;23.23;60.28;101884.41;4987773;28;20014;-64
2023/06/06 09:35:43;;;;;;;7.15;6.32;;;;;;;23.33;59.26;101890.56;4986909;28;20459;-65
2023/06/06 09:38:15;;;;;;;6.93;6.22;;;;;;;23.42;58.92;101879.97;4986235;28;20030;-65
2023/06/06 09:40:50;;;;;;;8.38;5.60;;;;;;;23.49;59.43;101881.66;4987441;28;20034;-65
2023/06/06 09:43:22;;;;;;;6.70;5.50;;;;;;;23.51;58.36;101885.19;4987007;28;20026;-65
2023/06/06 09:45:55;;;;;;;7.32;6.15;;;;;;;23.58;58.40;101885.16;4986753;28;20029;-65
2023/06/06 09:48:27;;;;;;;7.82;5.40;;;;;;;23.68;57.73;101884.19;4987094;28;20082;-65
2023/06/06 09:50:53;;;;;;;7.45;5.68;;;;;;;23.74;59.25;101881.53;4987251;28;20076;-65
2023/06/06 09:53:18;;;;;;;8.73;5.25;;;;;;;23.87;59.86;101881.44;4987318;28;20378;-65
2023/06/06 09:55:44;;;;;;;7.47;6.32;;;;;;;23.90;57.68;101876.13;4987132;28;20028;-65
2023/06/06 09:58:16;;;;;;;6.55;4.97;;;;;;;23.87;57.98;101881.44;4986727;28;20030;-64
2023/06/06 10:00:44;;;;;;;6.28;5.32;;;;;;;24.07;57.90;101872.47;4986974;28;20026;-65
2023/06/06 10:03:18;;;;;;;5.47;4.60;;;;;;;24.21;56.95;101877.66;4987132;28;20027;-65
2023/06/06 10:05:51;;;;;;;7.32;6.03;;;;;;;24.25;55.94;101875.88;4977751;28;20387;-65
2023/06/06 10:08:18;;;;;;;6.20;5.18;;;;;;;24.36;57.83;101871.31;4986815;28;20153;-65
2023/06/06 10:10:46;;;;;;;8.80;5.80;;;;;;;24.42;57.39;101868.63;4979812;28;20034;-65
2023/06/06 10:13:13;;;;;;;6.80;5.18;;;;;;;24.50;57.34;101868.53;4985521;28;20041;-64
2023/06/06 10:15:39;;;;;;;8.15;5.25;;;;;;;24.52;56.12;101868.53;4989896;28;20033;-65
2023/06/06 10:18:05;;;;;;;5.47;4.95;;;;;;;24.56;56.09;101865.84;4989296;28;20026;-64
2023/06/06 10:20:32;;;;;;;5.22;4.57;;;;;;;24.68;54.95;101874.56;4986438;28;20045;-64
2023/06/06 10:23:01;;;;;;;6.60;5.00;;;;;;;24.70;53.62;101872.72;4989934;28;20022;-65
2023/06/06 10:25:26;;;;;;;7.18;5.85;;;;;;;24.65;54.38;101870.16;4990124;28;20214;-65
2023/06/06 10:28:10;;;;;;;6.95;5.03;;;;;;;24.54;54.06;101862.31;4990447;28;20041;-64
2023/06/06 10:30:41;;;;;;;8.07;6.20;;;;;;;24.54;52.94;101869.38;4989304;28;20030;-65
2023/06/06 10:33:12;;;;;;;6.90;6.18;;;;;;;24.50;53.46;101865.03;4989088;28;20041;-65
2023/06/06 10:35:40;;;;;;;7.45;5.13;;;;;;;24.60;53.61;101869.31;4988500;28;20423;-64
2023/06/06 10:38:08;;;;;;;6.40;4.95;;;;;;;24.65;54.71;101867.50;4990380;28;20023;-64
2023/06/06 10:40:41;;;;;;;6.78;5.10;;;;;;;24.81;56.18;101864.66;4989217;28;20041;-65
2023/06/06 10:43:07;;;;;;;7.45;5.65;;;;;;;24.96;56.58;101866.28;4989507;28;20038;-65
2023/06/06 10:45:43;;;;;;;7.32;5.03;;;;;;;25.06;56.60;101859.97;4988595;28;20053;-66
2023/06/06 10:48:09;;;;;;;6.25;5.03;;;;;;;25.18;55.69;101856.28;4987559;28;20035;-64
2023/06/06 10:50:34;;;;;;;8.73;5.35;;;;;;;25.23;53.76;101856.22;4989010;28;20052;-64
2023/06/06 10:53:09;;;;;;;4.50;3.75;;;;;;;25.28;52.97;101858.81;4988893;28;20284;-64
2023/06/06 10:55:39;;;;;;;5.65;3.60;;;;;;;25.45;53.26;101849.72;4988341;28;20361;-65
2023/06/06 10:58:10;;;;;;;5.35;4.70;;;;;;;25.61;54.06;101855.69;4988372;28;20030;-65
2023/06/06 11:00:39;;;;;;;5.65;4.70;;;;;;;25.62;53.95;101855.66;4977596;28;20034;-65
2023/06/06 11:03:08;;;;;;;4.40;4.00;;;;;;;25.71;52.59;101846.69;4988787;28;20080;-64
2023/06/06 11:06:00;;;;;;;7.40;4.73;;;;;;;25.75;53.97;101848.41;4971752;28;20026;-64
2023/06/06 11:08:35;;;;;;;6.38;4.10;;;;;;;25.74;50.67;101845.78;4988323;28;20296;-64
2023/06/06 11:11:13;;;;;;;6.80;5.00;;;;;;;25.80;51.96;101835.06;4989701;28;20372;-64
2023/06/06 11:13:48;;;;;;;7.07;4.15;;;;;;;25.90;51.10;101852.56;4978105;28;20370;-65
2023/06/06 11:16:13;;;;;;;8.60;4.07;;;;;;;25.87;49.89;101844.66;4989178;28;20529;-64